Time;durP1;ratioP1;P1;durP2;ratioP2;P2;SDS_P1;SDS_P2;PMS_P1;PMS_P2;Temp;Humidity;BMP_temperature;BMP_pressure;BME280_temperature;BME280_humidity;BME280_pressure;Samples;Min_cycle;Max_cycle;Signal;HPM_P1;HPM_P2
2023/07/17 00:06:45;;;;;;;1.20;1.10;;;;;;;27.43;38.98;100795.59;21077202;28;20043;-72
2023/07/17 00:16:46;;;;;;;1.52;1.20;;;;;;;27.41;39.19;100794.28;21078914;28;20086;-74
2023/07/17 00:26:48;;;;;;;1.33;1.23;;;;;;;27.35;38.85;100776.75;21078451;28;20044;-73
2023/07/17 00:36:49;;;;;;;1.90;1.10;;;;;;;27.31;38.91;100787.84;21076507;28;20078;-74
2023/07/17 00:46:54;;;;;;;1.30;1.15;;;;;;;27.34;39.21;100809.63;21076399;28;20110;-75
2023/07/17 00:56:58;;;;;;;0.85;0.85;;;;;;;27.38;38.86;100811.81;21075703;28;20036;-75
2023/07/17 01:07:05;;;;;;;1.40;1.30;;;;;;;27.33;39.03;100819.22;21079972;28;20044;-74
2023/07/17 01:17:07;;;;;;;1.15;0.90;;;;;;;27.06;38.60;100791.38;21090579;28;20040;-74
2023/07/17 01:27:08;;;;;;;1.50;1.40;;;;;;;27.23;39.43;100825.16;21089979;28;20460;-74
2023/07/17 01:37:10;;;;;;;1.23;1.00;;;;;;;27.29;39.18;100835.09;21089522;28;20028;-76
2023/07/17 01:47:17;;;;;;;1.30;1.20;;;;;;;27.33;39.06;100833.28;21088042;28;20101;-75
2023/07/17 01:57:21;;;;;;;2.10;1.10;;;;;;;27.24;39.18;100832.44;21090251;28;20024;-73
2023/07/17 02:07:23;;;;;;;1.05;0.95;;;;;;;27.30;39.13;100835.91;21088578;28;20111;-72
2023/07/17 02:17:24;;;;;;;1.15;0.95;;;;;;;27.29;39.20;100843.50;21085120;28;20040;-73
2023/07/17 02:27:25;;;;;;;2.05;1.13;;;;;;;27.29;38.85;100862.34;21086743;28;20032;-75
2023/07/17 02:37:27;;;;;;;2.25;1.33;;;;;;;27.15;38.91;100856.88;21085189;28;20082;-74
2023/07/17 02:47:28;;;;;;;1.15;1.05;;;;;;;27.21;39.02;100868.78;21084804;28;20040;-73
2023/07/17 02:57:39;;;;;;;1.30;1.00;;;;;;;27.12;38.73;100860.31;21082744;28;20096;-73
2023/07/17 03:07:45;;;;;;;0.85;0.85;;;;;;;27.08;38.57;100867.72;21083244;28;20048;-74
2023/07/17 03:17:46;;;;;;;1.55;0.90;;;;;;;27.21;38.32;100905.28;21081692;28;20044;-73
2023/07/17 03:27:47;;;;;;;1.23;0.90;;;;;;;27.16;38.32;100908.25;21080895;28;20407;-73
2023/07/17 03:37:49;;;;;;;1.05;1.05;;;;;;;27.12;38.49;100913.69;21080600;28;20094;-73
2023/07/17 03:47:51;;;;;;;1.65;1.20;;;;;;;27.10;38.65;100921.63;21080032;28;20081;-73
2023/07/17 03:57:52;;;;;;;1.10;1.00;;;;;;;27.16;38.47;100937.16;21079337;28;20487;-73
2023/07/17 04:07:53;;;;;;;1.40;1.15;;;;;;;27.14;38.46;100931.06;21078697;28;20032;-72
2023/07/17 04:17:58;;;;;;;1.05;0.80;;;;;;;27.05;38.50;100930.16;21078351;28;20043;-73
2023/07/17 04:27:59;;;;;;;1.10;1.00;;;;;;;27.11;38.08;100934.50;21077879;28;20036;-73
2023/07/17 04:38:00;;;;;;;1.48;0.88;;;;;;;27.07;38.47;100923.03;21077137;28;20070;-73
2023/07/17 04:48:03;;;;;;;1.25;0.90;;;;;;;27.12;38.24;100936.16;21091751;28;20097;-72
2023/07/17 04:58:04;;;;;;;0.85;0.85;;;;;;;27.04;37.96;100939.75;21092727;28;20552;-72
2023/07/17 05:08:06;;;;;;;1.10;1.00;;;;;;;27.05;38.31;100944.19;21091530;28;20096;-72
2023/07/17 05:18:07;;;;;;;0.90;0.90;;;;;;;27.03;38.33;100932.44;21091797;28;20032;-72
2023/07/17 05:28:08;;;;;;;1.15;1.05;;;;;;;26.96;38.25;100968.59;21090498;28;20471;-73
2023/07/17 05:38:10;;;;;;;1.20;1.10;;;;;;;27.01;38.12;100993.75;21089949;28;20058;-73
2023/07/17 05:48:11;;;;;;;1.13;1.00;;;;;;;26.98;38.30;100985.94;21089451;28;20400;-72
2023/07/17 05:58:13;;;;;;;1.08;0.98;;;;;;;27.01;38.43;100983.31;21088203;28;20479;-73
2023/07/17 06:08:14;;;;;;;1.17;1.00;;;;;;;26.96;38.32;100991.06;21087790;28;20423;-73
2023/07/17 06:18:15;;;;;;;1.10;1.00;;;;;;;26.95;38.23;100997.84;21086371;28;20036;-72
2023/07/17 06:28:17;;;;;;;1.20;1.10;;;;;;;26.96;38.43;101002.31;21085936;28;20040;-73
2023/07/17 06:38:18;;;;;;;0.95;0.88;;;;;;;26.85;38.15;100974.50;21085449;28;20433;-73
2023/07/17 06:48:28;;;;;;;1.30;1.20;;;;;;;26.93;38.24;100986.09;21084236;28;20040;-74
2023/07/17 06:58:29;;;;;;;1.10;1.00;;;;;;;26.70;37.82;100944.00;21083379;28;20032;-73
2023/07/17 07:08:32;;;;;;;1.20;1.10;;;;;;;26.77;37.95;100980.88;21081631;28;20393;-73
2023/07/17 07:18:33;;;;;;;0.80;0.80;;;;;;;26.86;38.09;101001.41;21081530;28;20449;-73
2023/07/17 07:28:35;;;;;;;1.55;1.45;;;;;;;26.82;37.78;100994.78;21080251;28;20066;-73
2023/07/17 07:38:39;;;;;;;1.42;1.25;;;;;;;26.81;37.99;101009.97;21081059;28;20459;-74
2023/07/17 07:48:40;;;;;;;1.27;1.10;;;;;;;26.79;38.01;101003.81;21079328;28;20399;-75
2023/07/17 07:58:42;;;;;;;1.30;1.17;;;;;;;26.80;37.72;101013.06;21078552;28;20039;-73
2023/07/17 08:08:46;;;;;;;1.33;1.20;;;;;;;26.78;38.13;100995.75;21078519;28;20028;-73
2023/07/17 08:18:47;;;;;;;1.35;1.05;;;;;;;26.65;37.96;100971.38;21076193;28;20040;-72
2023/07/17 08:28:48;;;;;;;1.30;1.20;;;;;;;26.77;37.78;100997.72;21077073;28;20039;-72
2023/07/17 08:38:56;;;;;;;1.00;1.00;;;;;;;26.73;37.65;101018.31;21076143;28;20044;-73
2023/07/17 08:48:58;;;;;;;1.10;1.00;;;;;;;26.60;37.83;101008.81;21075904;28;20093;-73
2023/07/17 08:58:59;;;;;;;1.30;1.20;;;;;;;26.70;37.71;101042.22;21075601;28;20036;-73
2023/07/17 09:09:01;;;;;;;2.10;1.35;;;;;;;26.69;37.67;101053.78;21075094;28;20052;-72
2023/07/17 09:19:03;;;;;;;1.75;1.30;;;;;;;26.55;37.54;101046.25;21074004;28;20044;-72
2023/07/17 09:29:05;;;;;;;1.10;1.05;;;;;;;26.64;37.56;101060.34;21082094;28;20036;-73
2023/07/17 09:39:07;;;;;;;1.42;1.33;;;;;;;26.56;37.70;101075.13;21089492;28;20040;-73
2023/07/17 09:49:09;;;;;;;1.63;1.30;;;;;;;26.63;37.96;101102.78;21088354;28;20078;-72
2023/07/17 09:59:14;;;;;;;1.40;1.30;;;;;;;26.63;38.11;101114.00;21088234;28;20541;-73
2023/07/17 10:09:20;;;;;;;1.38;1.25;;;;;;;26.60;37.84;101135.94;21087274;28;20036;-73
2023/07/17 10:19:26;;;;;;;1.40;1.30;;;;;;;26.57;38.05;101132.94;21086246;28;20040;-72
2023/07/17 10:29:39;;;;;;;1.70;1.50;;;;;;;26.56;37.82;101154.56;21086343;28;20031;-73
2023/07/17 10:39:42;;;;;;;1.67;1.58;;;;;;;26.53;37.47;101149.59;21084064;28;20040;-72
2023/07/17 10:49:43;;;;;;;1.55;1.45;;;;;;;26.54;37.73;101167.25;21084763;28;20444;-73
2023/07/17 10:59:45;;;;;;;1.60;1.50;;;;;;;26.54;37.66;101181.28;21083216;28;20032;-73
2023/07/17 11:09:46;;;;;;;3.22;1.77;;;;;;;26.54;37.80;101184.09;21082442;28;20548;-73
2023/07/17 11:19:48;;;;;;;1.90;1.80;;;;;;;26.44;37.72;101182.34;21081811;28;20044;-72
2023/07/17 11:29:50;;;;;;;1.90;1.80;;;;;;;26.52;36.85;101203.19;21079665;28;20044;-72
2023/07/17 11:39:52;;;;;;;2.10;1.90;;;;;;;26.51;37.79;101216.41;21079906;28;20141;-72
2023/07/17 11:49:57;;;;;;;2.75;2.03;;;;;;;26.39;37.67;101193.63;21079087;28;20048;-73
2023/07/17 12:00:03;;;;;;;1.98;1.77;;;;;;;26.50;37.59;101208.31;21076627;28;20036;-72
2023/07/17 12:10:05;;;;;;;2.40;2.20;;;;;;;26.50;37.61;101217.56;21077700;28;20043;-72
2023/07/17 12:20:10;;;;;;;2.13;1.92;;;;;;;26.46;37.77;101210.06;21075868;28;20040;-72
2023/07/17 12:30:12;;;;;;;2.20;2.00;;;;;;;26.47;37.68;101240.63;21076769;28;20048;-71
2023/07/17 12:40:13;;;;;;;2.47;2.20;;;;;;;26.50;37.89;101247.59;21075533;28;20093;-72
2023/07/17 12:50:18;;;;;;;2.50;2.30;;;;;;;26.45;37.87;101253.31;21075789;28;20042;-74
2023/07/17 13:00:19;;;;;;;2.80;2.45;;;;;;;26.50;37.70;101262.47;21073736;28;20074;-72
2023/07/17 13:10:20;;;;;;;3.90;2.58;;;;;;;26.43;37.80;101252.75;21091982;28;20052;-73
2023/07/17 13:20:22;;;;;;;3.88;2.95;;;;;;;26.46;37.91;101263.38;21091040;28;20051;-72
2023/07/17 13:30:23;;;;;;;3.40;3.10;;;;;;;26.47;37.84;101273.47;21090706;28;20052;-72
2023/07/17 13:40:27;;;;;;;3.50;3.20;;;;;;;26.39;37.57;101286.22;21089516;28;20036;-72
2023/07/17 13:50:29;;;;;;;3.55;3.25;;;;;;;26.47;37.83;101305.16;21089109;28;20040;-72
2023/07/17 14:00:30;;;;;;;3.88;3.47;;;;;;;26.47;37.89;101307.97;21088572;28;20024;-72
2023/07/17 14:10:32;;;;;;;3.88;3.50;;;;;;;26.46;38.07;101311.94;21087699;28;20064;-72
2023/07/17 14:20:33;;;;;;;4.55;4.05;;;;;;;26.47;37.56;101307.97;21088345;28;20091;-72
2023/07/17 14:30:34;;;;;;;4.95;4.45;;;;;;;26.51;37.82;101308.19;21085885;28;20040;-72
2023/07/17 14:40:37;;;;;;;4.72;4.18;;;;;;;26.47;38.18;101307.97;21086474;28;20098;-72
2023/07/17 14:50:39;;;;;;;5.25;4.75;;;;;;;26.40;38.11;101298.28;21085234;28;20047;-71
2023/07/17 15:00:43;;;;;;;6.82;6.13;;;;;;;26.47;37.79;101329.59;21082355;28;20475;-71
2023/07/17 15:10:45;;;;;;;6.30;5.68;;;;;;;26.51;38.11;101344.66;21082891;28;20117;-72
2023/07/17 15:20:46;;;;;;;7.80;7.00;;;;;;;26.44;38.18;101342.28;21080812;28;20093;-73
2023/07/17 15:30:48;;;;;;;9.20;8.00;;;;;;;26.50;38.25;101348.63;21039859;28;20043;-72
2023/07/17 15:40:50;;;;;;;11.38;9.10;;;;;;;26.47;37.99;101352.03;21080621;28;20048;-71
2023/07/17 15:50:52;;;;;;;10.35;9.27;;;;;;;26.50;38.51;101359.84;21010207;28;20036;-72
2023/07/17 16:00:53;;;;;;;13.43;10.10;;;;;;;26.54;38.45;101356.13;20995766;28;20041;-71
2023/07/17 16:10:54;;;;;;;14.43;11.35;;;;;;;26.57;38.72;101358.31;20996125;28;20511;-72
2023/07/17 16:20:59;;;;;;;13.70;10.75;;;;;;;26.48;38.84;101331.25;20993694;28;20041;-72
2023/07/17 16:31:02;;;;;;;15.25;11.82;;;;;;;26.61;38.78;101341.66;21002024;28;20080;-72
2023/07/17 16:41:06;;;;;;;15.50;12.30;;;;;;;26.48;39.03;101320.03;20997235;28;20040;-71
2023/07/17 16:51:07;;;;;;;27.27;14.68;;;;;;;26.64;39.86;101335.44;21099897;28;20071;-72
2023/07/17 17:01:12;;;;;;;99.95;18.40;;;;;;;26.68;40.44;101325.25;21073341;28;20035;-72
2023/07/17 17:11:13;;;;;;;88.53;22.52;;;;;;;26.71;41.70;101310.59;21075555;28;20486;-72
2023/07/17 17:21:14;;;;;;;89.28;24.40;;;;;;;26.81;42.09;101310.38;21132294;28;20104;-71
2023/07/17 17:31:16;;;;;;;79.20;23.10;;;;;;;26.80;42.52;101294.69;21157685;28;20532;-72
2023/07/17 17:41:18;;;;;;;63.80;22.33;;;;;;;26.82;42.89;101297.19;21082930;28;20406;-72
2023/07/17 17:51:20;;;;;;;56.38;24.17;;;;;;;26.85;43.02;101290.94;21138307;28;20328;-72
2023/07/17 18:01:21;;;;;;;47.83;22.52;;;;;;;26.90;43.22;101295.63;21171196;28;20489;-73
2023/07/17 18:11:23;;;;;;;41.15;22.05;;;;;;;26.93;43.27;101298.63;21020866;28;20094;-72
2023/07/17 18:21:27;;;;;;;41.80;22.60;;;;;;;26.93;43.69;101293.00;21060784;28;20083;-72
2023/07/17 18:31:28;;;;;;;53.25;21.92;;;;;;;26.96;43.32;101285.94;21085156;28;20040;-71
2023/07/17 18:41:30;;;;;;;55.35;22.83;;;;;;;26.98;43.44;101283.63;21082789;28;20024;-72
2023/07/17 18:51:37;;;;;;;73.13;28.63;;;;;;;27.04;44.96;101276.78;21107524;28;20048;-72
2023/07/17 19:01:41;;;;;;;60.60;32.78;;;;;;;27.10;46.07;101264.31;21080822;28;20047;-71
2023/07/17 19:11:42;;;;;;;68.47;36.67;;;;;;;26.73;46.28;101190.41;21079920;28;20040;-71
2023/07/17 19:21:44;;;;;;;128.75;34.80;;;;;;;27.22;47.67;101225.25;21099857;28;20148;-71
2023/07/17 19:31:49;;;;;;;69.60;32.35;;;;;;;26.95;48.52;101233.72;21080944;28;20028;-72
2023/07/17 19:41:50;;;;;;;66.38;27.08;;;;;;;26.68;48.17;101179.28;21079699;28;20040;-68
2023/07/17 19:51:53;;;;;;;100.13;30.70;;;;;;;26.86;48.44;101195.16;21080193;28;20081;-75
2023/07/17 20:01:56;;;;;;;104.75;30.70;;;;;;;26.71;48.89;101175.84;21042494;28;20033;-75
2023/07/17 20:11:57;;;;;;;107.57;28.30;;;;;;;26.56;49.43;101164.94;21075483;28;20551;-76
2023/07/17 20:21:59;;;;;;;109.18;30.55;;;;;;;26.60;49.91;101180.84;20994389;28;20044;-77
2023/07/17 20:32:00;;;;;;;82.00;28.58;;;;;;;26.57;49.79;101177.81;21055324;28;20097;-76
2023/07/17 20:42:03;;;;;;;69.43;28.00;;;;;;;26.51;50.16;101167.88;21076475;28;20387;-75
2023/07/17 20:52:05;;;;;;;57.40;27.60;;;;;;;26.44;50.02;101145.03;21079192;28;20042;-77
2023/07/17 21:02:06;;;;;;;53.30;27.30;;;;;;;26.43;50.22;101151.72;21079025;28;20098;-77
2023/07/17 21:12:08;;;;;;;47.22;27.40;;;;;;;26.40;50.02;101166.41;21081031;28;20028;-77
2023/07/17 21:22:09;;;;;;;37.92;25.40;;;;;;;26.40;50.40;101149.56;21078052;28;20093;-77
2023/07/17 21:32:13;;;;;;;44.72;26.55;;;;;;;26.30;50.42;101134.63;21029520;28;20025;-78
2023/07/17 21:42:15;;;;;;;38.13;24.98;;;;;;;26.27;49.34;101143.66;21005894;28;20041;-79
2023/07/17 21:52:16;;;;;;;37.85;26.02;;;;;;;26.11;50.26;101117.06;21006588;28;20059;-78
2023/07/17 22:02:21;;;;;;;33.92;25.13;;;;;;;26.26;50.16;101150.41;21004378;28;20036;-78
2023/07/17 22:12:22;;;;;;;30.77;24.60;;;;;;;26.20;50.37;101143.22;21004634;28;20036;-78
2023/07/17 22:22:23;;;;;;;33.92;25.25;;;;;;;26.21;50.25;101146.88;21003804;28;20037;-79
2023/07/17 22:32:26;;;;;;;32.03;25.02;;;;;;;26.18;50.48;101153.94;20985690;28;20097;-79
2023/07/17 22:42:27;;;;;;;31.63;24.25;;;;;;;26.18;50.76;101161.53;21000254;28;20165;-78
2023/07/17 22:52:28;;;;;;;29.38;23.98;;;;;;;26.17;50.72;101155.09;21002574;28;20029;-79
2023/07/17 23:02:30;;;;;;;30.60;25.23;;;;;;;26.12;50.75;101154.38;21000627;28;20086;-78
2023/07/17 23:12:32;;;;;;;30.00;25.15;;;;;;;26.01;50.73;101131.28;20999226;28;20025;-80
2023/07/17 23:22:35;;;;;;;31.55;25.25;;;;;;;26.03;50.72;101151.44;20997993;28;20553;-81
2023/07/17 23:32:37;;;;;;;29.10;23.80;;;;;;;26.10;50.90;101177.09;20997956;28;20049;-80
2023/07/17 23:42:40;;;;;;;29.20;24.98;;;;;;;26.06;50.46;101178.84;20997293;28;20028;-79
2023/07/17 23:52:41;;;;;;;28.02;23.92;;;;;;;26.01;50.96;101192.97;20998567;28;20028;-79
